Penwell, Texas
Current Conditions -  °F | °C
As of 5:53 PM on Tuesday 25 Nov 2014 (Local Time) from KODO Reporting Station
Clear Clear  
Wind Chill: 51°   Ceiling: Unl
Heat Index: 51°   Visibility: 10mi
Dew Point: 11°   Wind: 9mph
Humidity: 20%   Direction: 240°WSW
Pressure: 30.18"   Gusts: NA
Location:  31.74°N, 102.59°W
Report Text: KODO 252353Z AUTO 24008KT 10SM CLR 11/M12 A3018 RMK AO2 SLP211 T01061117 10128 20094 56019
Loading
Personal Weather Stations






























Interactive Weather Map New forecast layout! Learn more

10-Day Weather Forecast

Advertisements
Track Severe Weather on mobile